createdAt,value
2019-03-06T00:04:35.053Z,7.17
2019-03-06T00:09:28.820Z,5.53
2019-03-06T00:14:22.399Z,6.20
2019-03-06T00:19:15.998Z,7.80
2019-03-06T00:24:09.270Z,4.53
2019-03-06T00:29:03.047Z,5.17
2019-03-06T00:34:05.191Z,6.70
2019-03-06T00:39:02.949Z,7.93
2019-03-06T00:43:56.461Z,6.57
2019-03-06T00:48:59.366Z,7.13
2019-03-06T00:54:00.700Z,6.93
2019-03-06T00:58:54.512Z,7.37
2019-03-06T01:03:48.131Z,7.53
2019-03-06T01:08:41.849Z,6.87
2019-03-06T01:13:35.388Z,7.17
2019-03-06T01:18:29.262Z,6.63
2019-03-06T01:23:23.179Z,9.77
2019-03-06T01:28:17.206Z,10.10
2019-03-06T01:33:27.450Z,7.73
2019-03-06T01:38:39.347Z,8.07
2019-03-06T01:43:41.059Z,10.67
2019-03-06T01:48:34.673Z,8.23
2019-03-06T01:53:28.283Z,9.97
2019-03-06T01:58:21.810Z,11.23
2019-03-06T02:03:15.549Z,9.57
2019-03-06T02:08:09.645Z,8.50
2019-03-06T02:13:03.222Z,9.87
2019-03-06T02:17:56.743Z,11.27
2019-03-06T02:22:50.438Z,11.90
2019-03-06T02:27:45.076Z,11.13
2019-03-06T02:32:38.897Z,9.50
2019-03-06T02:37:32.626Z,11.00
2019-03-06T02:42:26.426Z,12.97
2019-03-06T02:47:21.252Z,11.57
2019-03-06T02:52:15.109Z,10.17
2019-03-06T02:57:09.168Z,11.83
2019-03-06T03:02:22.551Z,14.13
2019-03-06T03:07:18.075Z,11.90
2019-03-06T03:12:11.733Z,12.00
2019-03-06T03:17:05.743Z,10.57
2019-03-06T03:21:59.361Z,14.23
2019-03-06T03:26:53.016Z,13.53
2019-03-06T03:31:46.577Z,13.13
2019-03-06T03:36:40.480Z,10.77
2019-03-06T03:41:34.239Z,12.17
2019-03-06T03:46:28.063Z,12.70
2019-03-06T03:51:21.805Z,10.63
2019-03-06T03:56:15.509Z,11.97
2019-03-06T04:01:09.186Z,11.93
2019-03-06T04:06:03.109Z,10.10
2019-03-06T04:10:57.053Z,9.53
2019-03-06T04:15:50.982Z,10.40
2019-03-06T04:20:45.058Z,10.20
2019-03-06T04:25:38.845Z,12.37
2019-03-06T04:30:32.553Z,10.30
2019-03-06T04:35:26.325Z,11.70
2019-03-06T04:40:20.309Z,13.10
2019-03-06T04:45:13.978Z,11.60
2019-03-06T04:50:08.822Z,12.50
2019-03-06T04:55:03.748Z,10.67
2019-03-06T04:59:57.524Z,13.10
2019-03-06T05:04:51.303Z,11.77
2019-03-06T05:09:45.712Z,13.93
2019-03-06T05:14:39.488Z,11.90
2019-03-06T05:19:33.391Z,16.23
2019-03-06T05:24:26.959Z,12.47
2019-03-06T05:29:20.656Z,12.17
2019-03-06T05:34:14.850Z,13.47
2019-03-06T05:39:10.611Z,12.03
2019-03-06T05:44:04.469Z,11.73
2019-03-06T05:48:58.260Z,18.47
2019-03-06T05:53:51.900Z,14.77
2019-03-06T05:58:45.698Z,16.47
2019-03-06T06:03:39.594Z,13.73
2019-03-06T06:08:33.396Z,14.63
2019-03-06T06:13:26.987Z,14.33
2019-03-06T06:18:20.635Z,14.07
2019-03-06T06:23:33.907Z,17.13
2019-03-06T06:28:27.795Z,13.27
2019-03-06T06:33:21.443Z,15.73
2019-03-06T06:38:17.229Z,13.33
2019-03-06T06:43:10.712Z,11.80
2019-03-06T06:48:29.738Z,13.63
2019-03-06T06:54:02.953Z,13.50
2019-03-06T06:59:15.170Z,14.47
2019-03-06T07:05:33.435Z,14.40
2019-03-06T07:10:47.494Z,12.80
2019-03-06T07:15:53.572Z,11.87
2019-03-06T07:20:54.734Z,12.60
2019-03-06T07:26:06.590Z,12.20
2019-03-06T07:31:19.782Z,13.47
2019-03-06T07:36:39.169Z,10.97
2019-03-06T07:41:56.096Z,10.63
2019-03-06T07:47:09.346Z,10.33
2019-03-06T07:52:18.644Z,11.73
2019-03-06T07:57:37.468Z,9.60
2019-03-06T08:03:03.917Z,8.07
2019-03-06T08:07:57.402Z,6.80
2019-03-06T08:12:57.603Z,9.03
2019-03-06T08:18:09.857Z,7.43
2019-03-06T08:23:25.940Z,9.07
2019-03-06T08:28:19.387Z,6.47
2019-03-06T08:33:18.095Z,7.20
2019-03-06T08:38:08.657Z,7.60
2019-03-06T08:43:02.509Z,7.93
2019-03-06T08:48:08.252Z,5.73
2019-03-06T08:53:24.887Z,5.60
2019-03-06T08:58:38.119Z,6.20
2019-03-06T09:03:50.341Z,4.83
2019-03-06T09:09:03.550Z,4.97
2019-03-06T09:14:16.825Z,3.10
2019-03-06T09:19:29.962Z,5.53
2019-03-06T09:24:41.984Z,4.23
2019-03-06T09:29:53.875Z,5.20
2019-03-06T09:34:56.072Z,5.03
2019-03-06T09:40:15.803Z,4.87
2019-03-06T09:45:23.986Z,6.00
2019-03-06T09:50:36.139Z,7.03
2019-03-06T09:55:43.761Z,5.33
2019-03-06T10:00:55.524Z,4.83
2019-03-06T10:06:09.014Z,6.73
2019-03-06T10:11:20.250Z,4.87
2019-03-06T10:16:28.611Z,6.27
2019-03-06T10:21:25.662Z,4.53
2019-03-06T10:26:19.672Z,5.63
2019-03-06T10:31:14.723Z,4.33
2019-03-06T10:36:10.256Z,7.17
2019-03-06T10:41:05.474Z,4.83
2019-03-06T10:46:00.447Z,5.33
2019-03-06T10:50:54.366Z,5.33
2019-03-06T10:55:48.460Z,5.90
2019-03-06T11:01:00.677Z,7.20
2019-03-06T11:05:54.807Z,5.47
2019-03-06T11:10:49.041Z,9.00
2019-03-06T11:15:55.155Z,5.47
2019-03-06T11:20:41.969Z,4.37
2019-03-06T11:25:37.083Z,7.77
2019-03-06T11:30:36.064Z,6.23
2019-03-06T11:35:30.503Z,5.83
2019-03-06T11:40:24.446Z,2.30
2019-03-06T11:45:18.884Z,4.03
2019-03-06T11:50:13.406Z,4.57
2019-03-06T11:55:08.545Z,6.10
2019-03-06T12:00:07.627Z,5.60
2019-03-06T12:05:01.971Z,3.60
2019-03-06T12:09:57.096Z,3.83
2019-03-06T12:14:51.260Z,4.57
2019-03-06T12:19:47.080Z,5.00
2019-03-06T12:24:42.392Z,5.90
2019-03-06T12:29:37.058Z,4.27
2019-03-06T12:34:32.369Z,5.43
2019-03-06T12:39:26.480Z,6.33
2019-03-06T12:44:20.577Z,6.30
2019-03-06T12:49:16.673Z,4.30
2019-03-06T12:54:11.147Z,6.10
2019-03-06T12:59:05.978Z,7.10
2019-03-06T13:04:15.111Z,3.87
2019-03-06T13:09:17.266Z,3.63
2019-03-06T13:14:10.769Z,5.37
2019-03-06T13:19:06.150Z,5.23
2019-03-06T13:24:00.174Z,6.07
2019-03-06T13:28:57.500Z,9.47
2019-03-06T13:33:56.218Z,4.23
2019-03-06T13:38:56.135Z,6.40
2019-03-06T13:43:45.325Z,4.50
2019-03-06T13:48:39.043Z,5.37
2019-03-06T13:53:33.046Z,5.03
2019-03-06T13:58:26.619Z,4.30
2019-03-06T14:03:20.587Z,3.53
2019-03-06T14:08:14.151Z,6.50
2019-03-06T14:13:07.875Z,7.67
2019-03-06T14:18:01.430Z,4.93
2019-03-06T14:22:55.320Z,5.77
2019-03-06T14:27:49.095Z,3.50
2019-03-06T14:32:42.920Z,4.73
2019-03-06T14:37:36.341Z,5.30
2019-03-06T14:42:30.056Z,7.77
2019-03-06T14:47:24.069Z,8.07
2019-03-06T14:52:17.982Z,5.03
2019-03-06T14:57:11.986Z,6.70
2019-03-06T15:02:05.954Z,6.70
2019-03-06T15:06:59.943Z,6.10
2019-03-06T15:11:53.371Z,6.80
2019-03-06T15:16:47.197Z,4.70
2019-03-06T15:21:43.761Z,4.33
2019-03-06T15:26:37.518Z,6.90
2019-03-06T15:31:31.170Z,6.43
2019-03-06T15:36:25.008Z,3.73
2019-03-06T15:41:18.900Z,6.27
2019-03-06T15:46:12.797Z,7.60
2019-03-06T15:51:06.190Z,6.23
2019-03-06T15:55:59.754Z,7.27
2019-03-06T16:00:53.606Z,6.43
2019-03-06T16:05:47.219Z,5.30
2019-03-06T16:10:41.387Z,4.90
2019-03-06T16:15:35.282Z,4.00
2019-03-06T16:20:28.877Z,5.60
2019-03-06T16:25:35.951Z,6.67
2019-03-06T16:30:22.498Z,6.27
2019-03-06T16:35:16.705Z,7.83
2019-03-06T16:40:13.708Z,6.70
2019-03-06T16:45:09.095Z,5.00
2019-03-06T16:50:03.078Z,7.17
2019-03-06T16:54:58.378Z,6.13
2019-03-06T16:59:52.195Z,3.77
2019-03-06T17:04:45.814Z,7.43
2019-03-06T17:09:49.804Z,5.63
2019-03-06T17:14:43.696Z,5.70
2019-03-06T17:19:38.031Z,6.43
2019-03-06T17:24:33.471Z,4.73
2019-03-06T17:29:30.761Z,6.13
2019-03-06T17:34:24.962Z,6.47
2019-03-06T17:39:18.879Z,6.50
2019-03-06T17:44:12.467Z,5.40
2019-03-06T17:49:07.685Z,5.90
2019-03-06T17:54:01.567Z,8.37
2019-03-06T17:58:58.756Z,5.77
2019-03-06T18:04:02.952Z,5.90
2019-03-06T18:08:57.030Z,4.23
2019-03-06T18:13:50.821Z,4.87
2019-03-06T18:18:44.525Z,5.77
2019-03-06T18:23:38.623Z,5.33
2019-03-06T18:28:32.002Z,4.63
2019-03-06T18:33:25.599Z,7.00
2019-03-06T18:38:19.368Z,3.87
2019-03-06T18:43:13.164Z,4.83
2019-03-06T18:48:06.827Z,5.73
2019-03-06T18:53:00.827Z,4.73
2019-03-06T18:57:54.581Z,5.07
2019-03-06T19:02:48.313Z,4.83
2019-03-06T19:07:42.000Z,6.63
2019-03-06T19:12:35.582Z,4.20
2019-03-06T19:17:29.232Z,7.57
2019-03-06T19:22:36.123Z,4.83
2019-03-06T19:27:30.996Z,5.57
2019-03-06T19:32:24.950Z,4.73
2019-03-06T19:37:18.629Z,4.23
2019-03-06T19:42:12.512Z,7.40
2019-03-06T19:47:06.197Z,5.80
2019-03-06T19:51:59.762Z,6.50
2019-03-06T19:56:54.977Z,6.33
2019-03-06T20:01:48.885Z,4.77
2019-03-06T20:06:42.485Z,5.50
2019-03-06T20:11:38.057Z,6.53
2019-03-06T20:16:31.676Z,5.83
2019-03-06T20:21:25.570Z,5.80
2019-03-06T20:26:19.970Z,6.87
2019-03-06T20:31:13.882Z,5.97
2019-03-06T20:36:07.521Z,9.10
2019-03-06T20:41:00.946Z,4.23
2019-03-06T20:45:54.691Z,7.43
2019-03-06T20:50:48.410Z,6.23
2019-03-06T20:55:42.096Z,8.40
2019-03-06T21:00:35.678Z,6.43
2019-03-06T21:05:30.384Z,5.03
2019-03-06T21:10:25.506Z,7.00
2019-03-06T21:15:19.540Z,7.10
2019-03-06T21:20:17.262Z,6.93
2019-03-06T21:25:12.324Z,6.53
2019-03-06T21:30:09.967Z,6.37
2019-03-06T21:35:04.052Z,5.67
2019-03-06T21:39:57.747Z,4.77
2019-03-06T21:44:53.232Z,5.73
2019-03-06T21:49:49.048Z,6.37
2019-03-06T21:54:43.091Z,5.57
2019-03-06T21:59:37.133Z,5.73
2019-03-06T22:04:33.167Z,4.47
2019-03-06T22:09:26.405Z,5.77
2019-03-06T22:14:21.205Z,6.57
2019-03-06T22:19:15.192Z,5.80
2019-03-06T22:24:09.024Z,7.90
2019-03-06T22:29:02.456Z,8.57
2019-03-06T22:33:56.131Z,5.70
2019-03-06T22:38:49.718Z,4.87
2019-03-06T22:43:43.398Z,4.57
2019-03-06T22:48:37.088Z,6.73
2019-03-06T22:53:30.778Z,8.67
2019-03-06T22:58:24.471Z,3.97
2019-03-06T23:03:19.805Z,6.93
2019-03-06T23:08:13.347Z,6.57
2019-03-06T23:13:07.173Z,6.93
2019-03-06T23:18:02.134Z,6.30
2019-03-06T23:22:57.245Z,4.27
2019-03-06T23:27:50.886Z,3.37
2019-03-06T23:32:44.583Z,7.63
2019-03-06T23:37:38.462Z,5.70
2019-03-06T23:42:32.352Z,4.50
2019-03-06T23:47:26.143Z,5.70
2019-03-06T23:52:27.700Z,5.87
2019-03-06T23:57:21.370Z,4.27
